Time;durP1;ratioP1;P1;durP2;ratioP2;P2;SDS_P1;SDS_P2;PMS_P1;PMS_P2;Temp;Humidity;BMP_temperature;BMP_pressure;BME280_temperature;BME280_humidity;BME280_pressure;Samples;Min_cycle;Max_cycle;Signal;HPM_P1;HPM_P2
2024/04/11 00:02:19;;;;;;;5.15;1.85;;;6.10;99.90;;;;;;5380444;26;20008;-57
2024/04/11 00:04:44;;;;;;;7.20;2.10;;;6.00;99.90;;;;;;5369648;26;20000;-54
2024/04/11 00:07:10;;;;;;;5.38;2.20;;;6.00;99.90;;;;;;5374489;26;20003;-56
2024/04/11 00:09:36;;;;;;;5.35;2.33;;;6.00;99.90;;;;;;5360024;26;20461;-56
2024/04/11 00:12:02;;;;;;;8.85;2.20;;;6.00;99.90;;;;;;5363990;26;20018;-56
2024/04/11 00:14:29;;;;;;;6.93;2.30;;;5.90;99.90;;;;;;5369976;26;20350;-56
2024/04/11 00:16:54;;;;;;;6.45;2.40;;;6.00;99.90;;;;;;5367415;26;20032;-56
2024/04/11 00:19:20;;;;;;;5.38;1.90;;;5.90;99.90;;;;;;5380165;26;20000;-53
2024/04/11 00:21:48;;;;;;;7.63;2.10;;;5.90;99.90;;;;;;5379381;26;20454;-58
2024/04/11 00:24:14;;;;;;;7.53;2.33;;;5.90;99.90;;;;;;5373710;26;19997;-57
2024/04/11 00:26:41;;;;;;;13.02;3.03;;;5.90;99.90;;;;;;5362782;26;20008;-56
2024/04/11 00:29:10;;;;;;;6.18;2.35;;;5.90;99.90;;;;;;5360536;26;20000;-55
2024/04/11 00:31:36;;;;;;;7.53;2.22;;;5.90;99.90;;;;;;5366902;26;19997;-56
2024/04/11 00:34:23;;;;;;;8.98;2.47;;;5.90;99.90;;;;;;5370744;26;20583;-57
2024/04/11 00:36:50;;;;;;;4.22;2.33;;;5.90;99.90;;;;;;5371231;26;20392;-56
2024/04/11 00:39:19;;;;;;;6.70;2.30;;;5.90;99.90;;;;;;5362406;26;20008;-55
2024/04/11 00:41:45;;;;;;;5.57;2.20;;;5.90;99.90;;;;;;5400064;26;20007;-56
2024/04/11 00:44:11;;;;;;;8.75;2.28;;;5.80;99.90;;;;;;5356693;26;20439;-56
2024/04/11 00:46:37;;;;;;;6.47;3.00;;;5.80;99.90;;;;;;5361299;26;20069;-58
2024/04/11 00:49:04;;;;;;;3.05;1.77;;;5.80;99.90;;;;;;5370910;26;20446;-54
2024/04/11 00:51:30;;;;;;;5.43;2.10;;;5.80;99.90;;;;;;5361181;26;20009;-54
2024/04/11 00:53:58;;;;;;;6.53;2.33;;;5.80;99.90;;;;;;5356491;26;20005;-55
2024/04/11 00:56:27;;;;;;;4.03;2.25;;;5.80;99.90;;;;;;5363906;26;20447;-57
2024/04/11 00:58:53;;;;;;;5.85;2.28;;;5.80;99.90;;;;;;5373188;26;20438;-56
2024/04/11 01:01:18;;;;;;;10.95;2.45;;;5.80;99.90;;;;;;5361043;26;20078;-54
2024/04/11 01:03:44;;;;;;;4.75;2.17;;;5.80;99.90;;;;;;5373169;26;20011;-53
2024/04/11 01:06:11;;;;;;;4.68;2.22;;;5.70;99.90;;;;;;5364341;26;20350;-55
2024/04/11 01:08:36;;;;;;;5.00;2.42;;;5.70;99.90;;;;;;5379929;26;19996;-55
2024/04/11 01:11:02;;;;;;;7.30;2.67;;;5.70;99.90;;;;;;5370033;26;20011;-55
2024/04/11 01:13:29;;;;;;;17.27;2.10;;;5.70;99.90;;;;;;5370088;26;20031;-54
2024/04/11 01:15:57;;;;;;;9.18;2.47;;;5.70;99.90;;;;;;5357004;26;20000;-54
2024/04/11 01:18:25;;;;;;;6.35;2.20;;;5.70;99.90;;;;;;5354706;26;20036;-52
2024/04/11 01:20:51;;;;;;;7.20;2.10;;;5.70;99.90;;;;;;5366470;26;20000;-52
2024/04/11 01:23:17;;;;;;;7.20;1.85;;;5.70;99.90;;;;;;5371762;26;20081;-55
2024/04/11 01:25:43;;;;;;;4.93;2.38;;;5.70;99.90;;;;;;5376030;26;20012;-55
2024/04/11 01:28:09;;;;;;;8.82;3.40;;;5.70;99.90;;;;;;5369944;26;20504;-53
2024/04/11 01:30:35;;;;;;;5.55;1.85;;;5.70;99.90;;;;;;5367211;26;20008;-54
2024/04/11 01:33:00;;;;;;;4.82;2.05;;;5.60;99.90;;;;;;5364076;26;20015;-53
2024/04/11 01:35:31;;;;;;;6.53;2.20;;;5.60;99.90;;;;;;5358802;26;20329;-52
2024/04/11 01:37:59;;;;;;;3.70;1.98;;;5.60;99.90;;;;;;5367273;26;20029;-54
2024/04/11 01:40:29;;;;;;;5.07;2.10;;;5.70;99.90;;;;;;5381836;26;20058;-51
2024/04/11 01:42:55;;;;;;;4.53;1.95;;;5.70;99.90;;;;;;5378174;26;20390;-55
2024/04/11 01:45:20;;;;;;;7.72;3.42;;;5.70;99.90;;;;;;5368450;26;20012;-55
2024/04/11 01:47:46;;;;;;;8.68;3.60;;;5.70;99.90;;;;;;5357274;26;20004;-55
2024/04/11 01:50:12;;;;;;;4.72;2.47;;;5.70;99.90;;;;;;5373442;26;20001;-52
2024/04/11 01:52:37;;;;;;;6.57;2.05;;;5.60;99.90;;;;;;5380824;26;20006;-55
2024/04/11 01:55:03;;;;;;;4.75;1.90;;;5.60;99.90;;;;;;5379520;26;20000;-54
2024/04/11 01:57:29;;;;;;;8.25;2.15;;;5.60;99.90;;;;;;5361791;26;20001;-54
2024/04/11 01:59:56;;;;;;;4.88;1.90;;;5.60;99.90;;;;;;5368856;26;20007;-54
2024/04/11 02:02:22;;;;;;;4.07;2.10;;;5.50;99.90;;;;;;5371114;26;20004;-56
2024/04/11 02:04:48;;;;;;;5.82;2.22;;;5.50;99.90;;;;;;5382769;26;20045;-55
2024/04/11 02:07:14;;;;;;;7.90;2.40;;;5.50;99.90;;;;;;5376061;26;20081;-54
2024/04/11 02:09:40;;;;;;;7.47;2.50;;;5.50;99.90;;;;;;5374242;26;20009;-55
2024/04/11 02:12:06;;;;;;;7.53;2.80;;;5.50;99.90;;;;;;5371981;26;20007;-58
2024/04/11 02:14:32;;;;;;;8.68;2.00;;;5.50;99.90;;;;;;5383694;26;19993;-55
2024/04/11 02:16:59;;;;;;;9.80;2.20;;;5.50;99.90;;;;;;5383425;26;20009;-55
2024/04/11 02:19:26;;;;;;;4.60;1.92;;;5.50;99.90;;;;;;5383018;26;19992;-58
2024/04/11 02:21:52;;;;;;;7.10;1.70;;;5.50;99.90;;;;;;5383149;26;20000;-58
2024/04/11 02:24:18;;;;;;;5.32;1.80;;;5.50;99.90;;;;;;5383257;26;19992;-56
2024/04/11 02:26:48;;;;;;;6.15;2.30;;;5.50;99.90;;;;;;5383031;26;20575;-57
2024/04/11 02:29:17;;;;;;;5.90;1.90;;;5.50;99.90;;;;;;5383091;26;20004;-57
2024/04/11 02:31:43;;;;;;;6.82;2.00;;;5.40;99.90;;;;;;5382801;26;20000;-57
2024/04/11 02:34:09;;;;;;;3.20;1.63;;;5.40;99.90;;;;;;5382905;26;20007;-57
2024/04/11 02:36:35;;;;;;;8.07;2.95;;;5.40;99.90;;;;;;5383033;26;20459;-57
2024/04/11 02:39:04;;;;;;;5.07;2.33;;;5.40;99.90;;;;;;5383067;26;20008;-57
2024/04/11 02:41:31;;;;;;;6.30;2.25;;;5.40;99.90;;;;;;5383134;26;20004;-58
2024/04/11 02:43:57;;;;;;;5.35;2.10;;;5.40;99.90;;;;;;5410888;26;20020;-56
2024/04/11 02:46:25;;;;;;;5.20;2.10;;;5.40;99.90;;;;;;5382630;26;20008;-57
2024/04/11 02:48:51;;;;;;;6.22;2.25;;;5.40;99.90;;;;;;5370248;26;20016;-57
2024/04/11 02:51:21;;;;;;;6.82;2.22;;;5.40;99.90;;;;;;5375306;26;20376;-53
2024/04/11 02:53:46;;;;;;;6.03;2.40;;;5.30;99.90;;;;;;5359076;26;20000;-55
2024/04/11 02:56:12;;;;;;;5.93;1.77;;;5.40;99.90;;;;;;5381263;26;20004;-54
2024/04/11 02:58:38;;;;;;;8.07;2.20;;;5.30;99.90;;;;;;5382885;26;20077;-57
2024/04/11 03:01:08;;;;;;;4.05;2.42;;;5.40;99.90;;;;;;5375118;26;20048;-58
2024/04/11 03:03:34;;;;;;;6.40;1.90;;;5.40;99.90;;;;;;5381655;26;20004;-57
2024/04/11 03:06:17;;;;;;;11.93;2.10;;;5.40;99.90;;;;;;5382775;26;20000;-58
2024/04/11 03:08:43;;;;;;;12.48;1.80;;;5.40;99.90;;;;;;5381595;26;20000;-58
2024/04/11 03:11:09;;;;;;;3.58;1.55;;;5.40;99.90;;;;;;5382894;26;20070;-58
2024/04/11 03:13:35;;;;;;;2.63;1.35;;;5.40;99.90;;;;;;5382780;26;20438;-58
2024/04/11 03:16:02;;;;;;;9.90;1.77;;;5.40;99.90;;;;;;5382443;26;20004;-57
2024/04/11 03:18:28;;;;;;;3.72;1.38;;;5.40;99.90;;;;;;5382357;26;20008;-56
2024/04/11 03:20:59;;;;;;;4.85;1.67;;;5.40;99.90;;;;;;5382595;26;20008;-60
2024/04/11 03:23:26;;;;;;;7.20;3.20;;;5.50;99.90;;;;;;5382665;26;20051;-57
2024/04/11 03:25:51;;;;;;;4.88;1.90;;;5.50;99.90;;;;;;5382642;26;20083;-56
2024/04/11 03:28:21;;;;;;;2.63;1.60;;;5.50;99.90;;;;;;5382382;26;20008;-57
2024/04/11 03:31:04;;;;;;;4.35;1.77;;;5.50;99.90;;;;;;5380450;26;20056;-56
2024/04/11 03:33:30;;;;;;;4.45;2.05;;;5.60;99.90;;;;;;5380602;26;20015;-56
2024/04/11 03:36:01;;;;;;;8.57;2.13;;;5.70;99.90;;;;;;5382298;26;19996;-57
2024/04/11 03:38:28;;;;;;;4.00;1.88;;;5.70;99.90;;;;;;5382164;26;20000;-58
2024/04/11 03:40:59;;;;;;;6.25;2.40;;;5.70;99.90;;;;;;5382342;26;19997;-57
2024/04/11 03:43:27;;;;;;;6.50;1.65;;;5.70;99.90;;;;;;5382582;26;20022;-58
2024/04/11 03:46:18;;;;;;;7.38;1.75;;;5.80;99.90;;;;;;5382107;26;20065;-57
2024/04/11 03:48:46;;;;;;;4.10;1.55;;;5.80;99.90;;;;;;5370505;26;20078;-57
2024/04/11 03:51:15;;;;;;;10.48;2.60;;;5.80;99.90;;;;;;5382154;26;20000;-58
2024/04/11 03:53:56;;;;;;;5.20;1.80;;;5.80;99.90;;;;;;5381857;26;19996;-58
2024/04/11 03:56:23;;;;;;;5.05;1.38;;;5.80;99.90;;;;;;5382166;26;20011;-58
2024/04/11 03:58:52;;;;;;;3.05;1.30;;;5.80;99.90;;;;;;5381836;26;20080;-58
2024/04/11 04:01:21;;;;;;;7.72;1.45;;;5.90;99.90;;;;;;5381628;26;20069;-57
2024/04/11 04:03:48;;;;;;;4.50;1.38;;;5.90;99.90;;;;;;5382013;26;20059;-58
2024/04/11 04:06:17;;;;;;;2.40;1.40;;;5.90;99.90;;;;;;5381606;26;20000;-58
2024/04/11 04:08:45;;;;;;;3.58;2.28;;;5.90;99.90;;;;;;5381901;26;20405;-58
2024/04/11 04:11:11;;;;;;;2.58;1.50;;;5.90;99.90;;;;;;5381636;26;20466;-58
2024/04/11 04:13:38;;;;;;;5.30;1.75;;;5.90;99.90;;;;;;5381695;26;20015;-58
2024/04/11 04:16:11;;;;;;;1.55;0.95;;;5.90;99.90;;;;;;5380169;26;19996;-58
2024/04/11 04:18:37;;;;;;;4.03;1.08;;;5.90;99.90;;;;;;5381868;26;20069;-60
2024/04/11 04:21:04;;;;;;;2.75;1.30;;;5.90;99.90;;;;;;5381778;26;19992;-57
2024/04/11 04:23:30;;;;;;;3.88;1.13;;;5.90;99.90;;;;;;5381723;26;19992;-58
2024/04/11 04:25:59;;;;;;;3.22;1.60;;;5.90;99.90;;;;;;5364560;26;20051;-55
2024/04/11 04:28:28;;;;;;;5.07;1.90;;;5.90;99.90;;;;;;5368232;26;20035;-55
2024/04/11 04:30:54;;;;;;;11.85;1.83;;;5.90;99.90;;;;;;5367939;26;20004;-51
2024/04/11 04:33:20;;;;;;;7.45;1.30;;;5.90;99.90;;;;;;5374531;26;20008;-52
2024/04/11 04:35:46;;;;;;;14.40;2.25;;;5.90;99.90;;;;;;5379437;26;20007;-54
2024/04/11 04:38:11;;;;;;;4.75;1.48;;;5.90;99.90;;;;;;5358567;26;19997;-52
2024/04/11 04:40:37;;;;;;;3.03;1.40;;;6.00;99.90;;;;;;5371771;26;20000;-56
2024/04/11 04:43:05;;;;;;;9.10;1.85;;;6.00;99.90;;;;;;5380138;26;20000;-56
2024/04/11 04:45:34;;;;;;;3.03;1.20;;;6.10;99.90;;;;;;5379713;26;20011;-58
2024/04/11 04:48:02;;;;;;;2.55;1.00;;;6.20;99.90;;;;;;5380201;26;20046;-53
2024/04/11 04:50:28;;;;;;;4.22;1.40;;;6.30;99.90;;;;;;5371594;26;19996;-57
2024/04/11 04:52:54;;;;;;;3.55;1.60;;;6.40;99.90;;;;;;5366352;26;20019;-55
2024/04/11 04:55:20;;;;;;;4.05;1.30;;;6.50;99.90;;;;;;5378164;26;20077;-58
2024/04/11 04:57:45;;;;;;;2.75;1.20;;;6.60;99.90;;;;;;5381076;26;20073;-58
2024/04/11 05:00:13;;;;;;;5.10;1.58;;;6.70;99.90;;;;;;5380857;26;20011;-56
2024/04/11 05:02:39;;;;;;;3.35;1.02;;;6.80;99.90;;;;;;5381347;26;20040;-59
2024/04/11 05:05:07;;;;;;;5.47;1.60;;;6.80;99.90;;;;;;5381143;26;20016;-58
2024/04/11 05:07:33;;;;;;;5.35;1.45;;;6.90;99.90;;;;;;5381141;26;20007;-60
2024/04/11 05:09:59;;;;;;;3.20;1.27;;;7.00;99.90;;;;;;5381087;26;20000;-60
2024/04/11 05:12:27;;;;;;;4.90;1.33;;;7.10;99.90;;;;;;5381188;26;20513;-59
2024/04/11 05:14:52;;;;;;;1.70;0.77;;;7.20;99.90;;;;;;5380850;26;20015;-60
2024/04/11 05:17:20;;;;;;;3.58;0.93;;;7.40;99.90;;;;;;5380844;26;20008;-59
2024/04/11 05:19:46;;;;;;;7.25;1.30;;;7.50;99.90;;;;;;5380702;26;20423;-58
2024/04/11 05:22:11;;;;;;;2.63;1.30;;;7.70;99.90;;;;;;5381202;26;20107;-60
2024/04/11 05:24:38;;;;;;;2.40;1.20;;;7.90;99.90;;;;;;5379310;26;20000;-60
2024/04/11 05:27:03;;;;;;;3.40;1.10;;;8.10;99.90;;;;;;5380349;26;20450;-60
2024/04/11 05:29:29;;;;;;;4.78;1.20;;;8.40;99.90;;;;;;5380760;26;20016;-60
2024/04/11 05:31:56;;;;;;;8.13;1.40;;;8.70;99.90;;;;;;5378964;26;20008;-60
2024/04/11 05:34:25;;;;;;;6.40;1.30;;;8.90;99.90;;;;;;5378943;26;20004;-61
2024/04/11 05:36:53;;;;;;;4.00;0.82;;;9.20;99.90;;;;;;5379987;26;20328;-60
2024/04/11 05:39:20;;;;;;;2.85;1.30;;;9.50;99.90;;;;;;5379380;26;20070;-61
2024/04/11 05:41:46;;;;;;;4.50;2.08;;;9.70;99.90;;;;;;5379632;26;20016;-59
2024/04/11 05:44:12;;;;;;;4.75;1.25;;;9.90;99.90;;;;;;5379966;26;20015;-59
2024/04/11 05:46:40;;;;;;;5.20;1.15;;;10.00;99.90;;;;;;5379835;26;20004;-59
2024/04/11 05:49:06;;;;;;;6.60;1.42;;;10.00;99.90;;;;;;5380138;26;20004;-60
2024/04/11 05:51:35;;;;;;;4.90;1.08;;;10.20;99.90;;;;;;5379938;26;20439;-58
2024/04/11 05:54:01;;;;;;;4.47;1.10;;;10.30;99.90;;;;;;5378204;26;20000;-60
2024/04/11 05:56:27;;;;;;;4.20;1.58;;;10.20;99.90;;;;;;5379687;26;20001;-60
2024/04/11 05:58:53;;;;;;;5.05;1.17;;;10.30;99.90;;;;;;5379495;26;20502;-60
2024/04/11 06:01:20;;;;;;;4.57;1.27;;;10.30;99.90;;;;;;5379337;26;20036;-61
2024/04/11 06:03:46;;;;;;;1.58;0.90;;;10.30;99.90;;;;;;5379548;26;20041;-59
2024/04/11 06:06:13;;;;;;;3.85;1.00;;;10.30;99.90;;;;;;5379622;26;20001;-59
2024/04/11 06:08:43;;;;;;;3.60;1.23;;;10.60;99.90;;;;;;5379589;26;20020;-61
2024/04/11 06:11:14;;;;;;;6.03;1.40;;;10.80;99.90;;;;;;5379575;26;20000;-60
2024/04/11 06:13:41;;;;;;;3.53;0.93;;;10.90;99.90;;;;;;5374235;26;20012;-60
2024/04/11 06:16:06;;;;;;;3.30;1.20;;;11.10;99.90;;;;;;5356590;26;20062;-56
2024/04/11 06:18:34;;;;;;;2.65;1.15;;;11.30;99.90;;;;;;5376410;26;19996;-57
2024/04/11 06:21:01;;;;;;;3.40;1.15;;;11.20;99.90;;;;;;5372800;26;20038;-59
2024/04/11 06:23:26;;;;;;;5.85;1.23;;;11.30;99.90;;;;;;5366524;26;20004;-58
2024/04/11 06:25:52;;;;;;;2.80;1.20;;;11.50;99.90;;;;;;5360625;26;20047;-61
2024/04/11 06:28:18;;;;;;;9.27;1.55;;;11.30;99.90;;;;;;5344124;26;19997;-61
2024/04/11 06:30:54;;;;;;;3.65;1.15;;;11.30;99.90;;;;;;5344204;26;20071;-62
2024/04/11 06:33:22;;;;;;;3.55;1.20;;;11.20;99.90;;;;;;5343969;26;20001;-60
2024/04/11 06:35:51;;;;;;;6.45;1.38;;;11.20;99.90;;;;;;5344141;26;20009;-61
2024/04/11 06:38:20;;;;;;;3.33;1.15;;;11.20;99.90;;;;;;5344380;26;20012;-62
2024/04/11 06:40:49;;;;;;;4.97;1.30;;;11.20;99.90;;;;;;5347020;26;20004;-62
2024/04/11 06:43:16;;;;;;;2.80;1.10;;;11.40;99.90;;;;;;5347236;26;20004;-60
2024/04/11 06:45:45;;;;;;;5.47;1.27;;;11.40;99.90;;;;;;5375057;26;20012;-59
2024/04/11 06:48:12;;;;;;;8.23;1.20;;;11.40;99.90;;;;;;5347352;26;20097;-62
2024/04/11 06:50:38;;;;;;;3.30;0.98;;;11.60;99.90;;;;;;5347327;26;20001;-60
2024/04/11 06:53:04;;;;;;;3.75;1.10;;;11.50;99.90;;;;;;5347234;26;20001;-61
2024/04/11 06:55:31;;;;;;;6.63;1.30;;;11.80;99.90;;;;;;5347278;26;20489;-60
2024/04/11 06:57:56;;;;;;;4.40;1.60;;;11.80;99.90;;;;;;5347021;26;20001;-60
2024/04/11 07:00:25;;;;;;;4.30;1.63;;;11.60;99.90;;;;;;5347138;26;20007;-60
2024/04/11 07:02:54;;;;;;;4.97;1.08;;;11.80;99.90;;;;;;5354827;26;20019;-60
2024/04/11 07:05:22;;;;;;;3.35;1.10;;;11.80;99.90;;;;;;5382264;26;20024;-60
2024/04/11 07:07:54;;;;;;;3.25;1.10;;;12.10;99.90;;;;;;5346994;26;20459;-60
2024/04/11 07:10:26;;;;;;;5.20;1.65;;;11.90;99.90;;;;;;5346964;26;20001;-60
2024/04/11 07:12:53;;;;;;;8.93;1.55;;;11.90;99.90;;;;;;5346935;26;20021;-60
2024/04/11 07:15:28;;;;;;;9.60;1.60;;;11.90;99.90;;;;;;5360041;26;20032;-58
2024/04/11 07:17:57;;;;;;;6.35;1.10;;;11.90;99.90;;;;;;5381818;26;20328;-58
2024/04/11 07:20:31;;;;;;;7.43;1.02;;;11.80;99.90;;;;;;5381745;26;20016;-59
2024/04/11 07:22:58;;;;;;;1.60;0.90;;;11.80;99.90;;;;;;5382145;26;20077;-58
2024/04/11 07:25:30;;;;;;;1.98;1.00;;;11.90;99.90;;;;;;5381740;26;20000;-58
2024/04/11 07:27:55;;;;;;;1.40;0.85;;;11.70;99.90;;;;;;5381932;26;20364;-56
2024/04/11 07:30:23;;;;;;;4.25;1.33;;;11.60;99.90;;;;;;5381817;26;20000;-57
2024/04/11 07:32:51;;;;;;;5.38;1.40;;;11.60;99.90;;;;;;5382120;26;20010;-58
2024/04/11 07:35:17;;;;;;;4.50;1.17;;;11.60;99.90;;;;;;5381879;26;20000;-58
2024/04/11 07:37:43;;;;;;;5.55;2.28;;;11.50;99.90;;;;;;5381648;26;20494;-61
2024/04/11 07:43:05;;;;;;;2.15;0.80;;;11.60;99.90;;;;;;5371193;26;20011;-52
2024/04/11 07:45:37;;;;;;;1.90;1.10;;;11.60;99.90;;;;;;5355876;26;20011;-53
2024/04/11 07:48:08;;;;;;;2.33;1.20;;;11.60;99.90;;;;;;5374657;26;20103;-54
2024/04/11 07:50:40;;;;;;;4.60;1.42;;;11.70;99.90;;;;;;5375079;26;20434;-57
2024/04/11 07:53:07;;;;;;;7.57;1.83;;;11.70;99.90;;;;;;5366947;26;20521;-52
2024/04/11 07:55:33;;;;;;;4.18;0.88;;;11.70;99.90;;;;;;5348743;26;20013;-54
2024/04/11 07:58:05;;;;;;;5.00;1.08;;;11.70;99.90;;;;;;5368249;26;20009;-54
2024/04/11 08:00:39;;;;;;;12.80;1.27;;;11.70;99.90;;;;;;5369061;26;19996;-57
2024/04/11 08:03:07;;;;;;;7.15;1.08;;;11.70;99.90;;;;;;5356757;26;20354;-54
2024/04/11 08:05:33;;;;;;;7.00;1.33;;;11.70;99.90;;;;;;5374951;26;20004;-55
2024/04/11 08:07:59;;;;;;;7.35;1.08;;;11.80;99.90;;;;;;5366207;26;19996;-54
2024/04/11 08:10:27;;;;;;;2.78;0.88;;;11.90;99.90;;;;;;5377868;26;20430;-57
2024/04/11 08:12:53;;;;;;;4.10;1.25;;;12.00;99.90;;;;;;5365789;26;19937;-58
2024/04/11 08:15:19;;;;;;;3.38;0.93;;;12.10;99.90;;;;;;5381419;26;20453;-56
2024/04/11 08:17:45;;;;;;;2.75;1.10;;;12.10;99.90;;;;;;5363376;26;20001;-54
2024/04/11 08:20:14;;;;;;;4.43;1.50;;;12.30;99.90;;;;;;5370657;26;20006;-54
2024/04/11 08:22:41;;;;;;;2.90;1.15;;;12.40;99.90;;;;;;5378067;26;20046;-57
2024/04/11 08:25:12;;;;;;;4.90;1.40;;;12.50;99.90;;;;;;5360562;26;19996;-54
2024/04/11 08:27:42;;;;;;;5.05;1.00;;;12.60;99.90;;;;;;5350948;26;20015;-55
2024/04/11 08:30:09;;;;;;;7.18;1.65;;;12.60;99.90;;;;;;5353693;26;20047;-55
2024/04/11 08:32:35;;;;;;;5.63;0.93;;;12.70;99.90;;;;;;5367157;26;20013;-56
2024/04/11 08:35:01;;;;;;;4.30;1.08;;;12.90;99.90;;;;;;5370418;26;20512;-55
2024/04/11 08:37:28;;;;;;;5.93;1.33;;;12.90;99.90;;;;;;5371701;26;20000;-58
2024/04/11 08:39:58;;;;;;;5.60;1.15;;;12.70;99.90;;;;;;5350074;26;20000;-57
2024/04/11 08:42:23;;;;;;;2.58;0.95;;;12.80;99.90;;;;;;5360446;26;20004;-56
2024/04/11 08:44:50;;;;;;;4.30;1.20;;;12.90;99.90;;;;;;5377853;26;20699;-57
2024/04/11 08:47:16;;;;;;;4.68;1.00;;;13.00;99.90;;;;;;5380833;26;20019;-57
2024/04/11 08:49:42;;;;;;;11.05;1.08;;;13.00;99.90;;;;;;5349634;26;20348;-58
2024/04/11 08:52:11;;;;;;;6.25;1.33;;;12.90;99.90;;;;;;5345158;26;20020;-57
2024/04/11 08:54:41;;;;;;;11.38;1.05;;;12.80;99.90;;;;;;5345897;26;20015;-56
2024/04/11 08:57:11;;;;;;;3.55;0.88;;;12.70;99.90;;;;;;5345477;26;20005;-57
2024/04/11 08:59:38;;;;;;;10.77;2.28;;;12.70;99.90;;;;;;5345498;26;20371;-56
2024/04/11 09:02:06;;;;;;;5.18;0.73;;;12.60;99.90;;;;;;5351775;26;20444;-58
2024/04/11 09:04:32;;;;;;;2.67;0.88;;;12.70;99.90;;;;;;5380013;26;20010;-55
2024/04/11 09:06:58;;;;;;;2.80;0.80;;;12.80;99.90;;;;;;5360474;26;20399;-58
2024/04/11 09:09:24;;;;;;;4.22;0.93;;;12.80;99.90;;;;;;5352904;26;19997;-56
2024/04/11 09:11:51;;;;;;;3.65;0.70;;;12.90;99.90;;;;;;5356255;26;20103;-56
2024/04/11 09:14:17;;;;;;;6.07;1.05;;;13.00;99.90;;;;;;5353295;26;20404;-57
2024/04/11 09:16:43;;;;;;;4.70;1.15;;;13.20;99.90;;;;;;5365112;26;20004;-57
2024/04/11 09:19:10;;;;;;;6.05;1.23;;;13.30;99.90;;;;;;5379865;26;20054;-58
2024/04/11 09:21:45;;;;;;;3.40;0.93;;;13.30;99.90;;;;;;5380148;26;19996;-57
2024/04/11 09:24:17;;;;;;;5.35;1.60;;;13.40;99.90;;;;;;5374205;26;20040;-57
2024/04/11 09:26:46;;;;;;;9.18;1.20;;;13.70;99.90;;;;;;5366908;26;20015;-55
2024/04/11 09:29:13;;;;;;;7.05;1.55;;;13.60;99.90;;;;;;5371529;26;20005;-58
2024/04/11 09:31:39;;;;;;;5.97;1.10;;;13.70;99.90;;;;;;5363023;26;20032;-59
2024/04/11 09:34:13;;;;;;;6.07;1.00;;;13.80;99.90;;;;;;5371540;26;20011;-57
2024/04/11 09:36:48;;;;;;;2.63;1.17;;;13.80;99.90;;;;;;5380043;26;20458;-58
2024/04/11 09:42:12;;;;;;;3.97;1.02;;;13.90;99.90;;;;;;5352472;26;20018;-59
2024/04/11 09:44:46;;;;;;;3.03;1.00;;;13.80;99.90;;;;;;5378634;26;20059;-58
2024/04/11 09:47:14;;;;;;;2.72;0.77;;;13.90;99.90;;;;;;5379967;26;20018;-58
2024/04/11 09:49:42;;;;;;;6.65;1.00;;;13.90;99.90;;;;;;5377570;26;20447;-54
2024/04/11 09:52:10;;;;;;;9.95;1.83;;;13.90;99.90;;;;;;5345251;26;20005;-56
2024/04/11 09:54:38;;;;;;;5.78;1.52;;;14.00;99.90;;;;;;5356008;26;20344;-56
2024/04/11 09:57:06;;;;;;;2.38;0.80;;;14.00;99.90;;;;;;5359350;26;20048;-56
2024/04/11 09:59:32;;;;;;;5.75;1.13;;;14.20;99.90;;;;;;5377460;26;20358;-57
2024/04/11 10:02:01;;;;;;;7.88;2.03;;;14.20;99.90;;;;;;5351673;26;20005;-57
2024/04/11 10:04:35;;;;;;;8.88;2.13;;;14.20;99.90;;;;;;5379660;26;20070;-57
2024/04/11 10:07:08;;;;;;;3.67;1.13;;;14.40;99.90;;;;;;5358998;26;20405;-58
2024/04/11 10:09:35;;;;;;;4.90;1.00;;;14.50;99.90;;;;;;5368661;26;20454;-57
2024/04/11 10:12:04;;;;;;;8.13;1.58;;;14.70;99.90;;;;;;5363679;26;20033;-57
2024/04/11 10:14:32;;;;;;;6.95;1.15;;;14.70;99.90;;;;;;5364297;26;20011;-57
2024/04/11 10:17:05;;;;;;;9.13;1.00;;;14.80;99.90;;;;;;5347249;26;20011;-56
2024/04/11 10:19:32;;;;;;;3.00;1.10;;;14.90;99.90;;;;;;5359645;26;20338;-59
2024/04/11 10:22:05;;;;;;;3.63;1.10;;;15.10;99.90;;;;;;5380919;26;20078;-57
2024/04/11 10:24:35;;;;;;;8.13;1.98;;;15.10;99.90;;;;;;5382397;26;20443;-59
2024/04/11 10:27:09;;;;;;;8.90;1.30;;;15.40;99.90;;;;;;5369984;26;20004;-59
2024/04/11 10:29:46;;;;;;;6.10;1.33;;;15.60;99.90;;;;;;5380961;26;20011;-59
2024/04/11 10:32:26;;;;;;;5.13;1.20;;;15.70;99.70;;;;;;5374572;26;20024;-58
2024/04/11 10:34:56;;;;;;;5.57;1.40;;;16.00;99.30;;;;;;5367849;26;20001;-57
2024/04/11 10:37:26;;;;;;;10.40;4.18;;;15.90;98.70;;;;;;5380354;26;20015;-59
2024/04/11 10:39:57;;;;;;;5.97;1.90;;;15.80;99.20;;;;;;5382620;26;20015;-59
2024/04/11 10:42:36;;;;;;;2.85;1.30;;;15.70;99.10;;;;;;5372408;26;20032;-58
2024/04/11 10:45:17;;;;;;;4.60;1.38;;;15.80;99.20;;;;;;5382502;26;20015;-59
2024/04/11 10:47:44;;;;;;;8.02;1.80;;;16.00;99.10;;;;;;5378065;26;20009;-57
2024/04/11 10:50:10;;;;;;;2.25;1.20;;;15.80;99.20;;;;;;5382219;26;20006;-58
2024/04/11 10:52:37;;;;;;;18.48;2.03;;;15.90;99.80;;;;;;5382148;26;19996;-59
2024/04/11 10:55:12;;;;;;;9.57;2.95;;;16.00;99.20;;;;;;5347752;26;20011;-57
2024/04/11 10:57:40;;;;;;;47.78;14.98;;;15.90;99.20;;;;;;5357345;26;20001;-58
2024/04/11 11:00:10;;;;;;;31.50;9.70;;;15.80;99.20;;;;;;5381072;26;19997;-57
2024/04/11 11:02:38;;;;;;;16.55;3.90;;;15.90;99.90;;;;;;5382507;26;20008;-55
2024/04/11 11:05:07;;;;;;;14.20;3.83;;;16.00;99.50;;;;;;5368055;26;20012;-58
2024/04/11 11:07:35;;;;;;;15.93;2.80;;;16.00;99.30;;;;;;5382304;26;20445;-56
2024/04/11 11:10:11;;;;;;;12.32;3.03;;;15.80;99.00;;;;;;5382075;26;20000;-59
2024/04/11 11:12:37;;;;;;;72.57;21.90;;;15.70;99.30;;;;;;5382346;26;20019;-60
2024/04/11 11:15:03;;;;;;;49.83;14.85;;;15.80;99.80;;;;;;5390469;26;20366;-60
2024/04/11 11:17:31;;;;;;;13.07;4.00;;;16.00;99.90;;;;;;5372668;26;20000;-60
2024/04/11 11:19:58;;;;;;;14.88;3.38;;;16.30;99.80;;;;;;5387846;26;20469;-59
2024/04/11 11:22:33;;;;;;;22.13;7.22;;;16.50;99.00;;;;;;5373319;26;20000;-60
2024/04/11 11:25:00;;;;;;;9.05;2.70;;;16.50;99.20;;;;;;5361087;26;20003;-60
2024/04/11 11:27:28;;;;;;;10.90;3.38;;;16.40;98.60;;;;;;5370685;26;20008;-60
2024/04/11 11:29:56;;;;;;;6.75;3.08;;;16.30;98.70;;;;;;5359001;26;20008;-61
2024/04/11 11:32:21;;;;;;;9.98;3.90;;;16.40;99.50;;;;;;5362168;26;20072;-61
2024/04/11 11:34:47;;;;;;;4.63;1.45;;;16.50;98.70;;;;;;5389999;26;20036;-60
2024/04/11 11:37:14;;;;;;;7.57;2.13;;;16.80;98.40;;;;;;5368904;26;20008;-61
2024/04/11 11:39:49;;;;;;;8.30;2.40;;;16.80;99.30;;;;;;5369211;26;20012;-60
2024/04/11 11:42:31;;;;;;;7.15;2.25;;;16.80;98.70;;;;;;5370770;26;19992;-61
2024/04/11 11:47:35;;;;;;;14.75;3.97;;;16.90;98.60;;;;;;5368730;26;20036;-61
2024/04/11 11:50:01;;;;;;;9.45;3.80;;;16.80;98.70;;;;;;5367356;26;20004;-61
2024/04/11 11:52:27;;;;;;;5.38;2.75;;;16.90;98.60;;;;;;5372843;26;20004;-60
2024/04/11 11:54:54;;;;;;;7.28;2.33;;;16.80;98.90;;;;;;5376414;26;20015;-60
2024/04/11 11:57:22;;;;;;;13.98;5.65;;;16.90;98.80;;;;;;5365759;26;20008;-60
2024/04/11 11:59:48;;;;;;;19.25;6.35;;;17.10;99.20;;;;;;5359481;26;20012;-61
2024/04/11 12:02:14;;;;;;;22.35;7.20;;;17.10;99.30;;;;;;5367430;26;20078;-61
2024/04/11 12:04:46;;;;;;;7.28;2.33;;;17.10;99.20;;;;;;5396253;26;20001;-60
2024/04/11 12:07:18;;;;;;;21.98;9.57;;;17.00;99.00;;;;;;5369491;26;19998;-61
2024/04/11 12:09:43;;;;;;;12.90;4.20;;;17.00;99.20;;;;;;5367560;26;20019;-61
2024/04/11 12:12:23;;;;;;;9.35;2.58;;;17.20;99.50;;;;;;5359742;26;20004;-61
2024/04/11 12:14:55;;;;;;;16.67;5.07;;;17.00;99.00;;;;;;5371450;26;20044;-61
2024/04/11 12:17:24;;;;;;;12.18;3.83;;;17.00;99.50;;;;;;5330653;26;20016;-61
2024/04/11 12:19:53;;;;;;;35.72;12.93;;;17.00;99.20;;;;;;5356261;26;20001;-60
2024/04/11 12:22:19;;;;;;;25.88;7.80;;;16.70;99.80;;;;;;5361494;26;19992;-59
2024/04/11 12:24:46;;;;;;;17.52;6.82;;;16.70;99.30;;;;;;5365930;26;20008;-59
2024/04/11 12:27:13;;;;;;;16.08;5.13;;;16.60;99.20;;;;;;5367482;26;20419;-58
2024/04/11 12:29:42;;;;;;;10.30;2.63;;;16.60;99.80;;;;;;5361844;26;19997;-57
2024/04/11 12:32:13;;;;;;;17.98;6.50;;;16.80;99.70;;;;;;5323863;26;20055;-58
2024/04/11 12:34:42;;;;;;;42.47;15.93;;;16.90;99.90;;;;;;5362185;26;19998;-57
2024/04/11 12:37:16;;;;;;;13.80;4.50;;;17.20;99.90;;;;;;5356411;26;20144;-59
2024/04/11 12:39:53;;;;;;;6.30;2.60;;;17.60;99.30;;;;;;5336226;26;20011;-59
2024/04/11 12:42:29;;;;;;;43.40;16.40;;;17.80;98.70;;;;;;5356357;26;20005;-58
2024/04/11 12:44:58;;;;;;;14.32;6.43;;;17.80;98.00;;;;;;5361807;26;20013;-56
2024/04/11 12:47:38;;;;;;;10.93;3.65;;;17.90;98.30;;;;;;5356464;26;20012;-65
2024/04/11 12:50:12;;;;;;;5.97;2.00;;;17.90;98.20;;;;;;5368222;26;19996;-60
2024/04/11 12:52:44;;;;;;;7.63;2.28;;;17.70;98.30;;;;;;5309671;26;20043;-64
2024/04/11 12:55:10;;;;;;;14.20;6.78;;;18.00;98.90;;;;;;5302610;26;20005;-59
2024/04/11 12:57:37;;;;;;;8.65;3.83;;;18.10;98.90;;;;;;5322995;26;20005;-60
2024/04/11 13:00:34;;;;;;;7.65;1.55;;;18.10;98.30;;;;;;5336253;26;20369;-60
2024/04/11 13:05:54;;;;;;;16.00;4.10;;;18.70;98.00;;;;;;5357794;26;20067;-59
2024/04/11 13:08:21;;;;;;;3.28;1.42;;;18.60;98.40;;;;;;5340443;26;20582;-59